Time;durP1;ratioP1;P1;durP2;ratioP2;P2;SDS_P1;SDS_P2;PMS_P1;PMS_P2;Temp;Humidity;BMP_temperature;BMP_pressure;BME280_temperature;BME280_humidity;BME280_pressure;Samples;Min_cycle;Max_cycle;Signal;HPM_P1;HPM_P2
2024/04/17 00:02:22;;;;;;;2.23;0.80;;;;;;;6.21;100.00;99773.69;5275326;27;20425;-72
2024/04/17 00:04:48;;;;;;;2.43;1.10;;;;;;;6.17;100.00;99778.00;5275675;27;20708;-72
2024/04/17 00:07:16;;;;;;;1.67;1.03;;;;;;;6.21;100.00;99773.69;5275390;27;20312;-72
2024/04/17 00:09:41;;;;;;;2.17;1.10;;;;;;;6.24;100.00;99770.41;5275958;27;20372;-72
2024/04/17 00:12:09;;;;;;;0.93;0.93;;;;;;;6.25;100.00;99777.97;5280589;27;20646;-72
2024/04/17 00:14:37;;;;;;;1.00;0.80;;;;;;;6.22;100.00;99772.59;5268347;27;20339;-73
2024/04/17 00:17:03;;;;;;;2.37;1.00;;;;;;;6.25;100.00;99771.94;5275045;27;20297;-73
2024/04/17 00:19:33;;;;;;;1.77;1.20;;;;;;;6.26;100.00;99779.50;5264317;27;20234;-72
2024/04/17 00:21:59;;;;;;;1.97;1.13;;;;;;;6.25;100.00;99779.81;5262499;27;20574;-72
2024/04/17 00:24:27;;;;;;;1.57;1.13;;;;;;;6.27;100.00;99777.66;5271028;27;20253;-73
2024/04/17 00:26:52;;;;;;;0.90;0.90;;;;;;;6.24;100.00;99780.88;5275376;27;20631;-72
2024/04/17 00:29:20;;;;;;;2.40;1.30;;;;;;;6.24;100.00;99788.75;5265203;27;20318;-73
2024/04/17 00:31:46;;;;;;;1.63;1.03;;;;;;;6.25;100.00;99783.19;5276520;27;20296;-73
2024/04/17 00:34:14;;;;;;;1.23;1.10;;;;;;;6.27;100.00;99786.25;5275309;27;20308;-72
2024/04/17 00:36:42;;;;;;;1.07;0.97;;;;;;;6.26;100.00;99787.34;5275592;27;20732;-73
2024/04/17 00:39:10;;;;;;;1.67;1.23;;;;;;;6.27;100.00;99794.13;5262601;27;20288;-72
2024/04/17 00:41:35;;;;;;;3.00;1.40;;;;;;;6.26;100.00;99795.22;5263841;27;20235;-72
2024/04/17 00:44:04;;;;;;;2.33;1.10;;;;;;;6.28;100.00;99795.69;5275208;27;20323;-73
2024/04/17 00:46:30;;;;;;;1.63;1.17;;;;;;;6.27;100.00;99791.50;5274970;27;20237;-72
2024/04/17 00:48:58;;;;;;;1.87;0.87;;;;;;;6.25;100.00;99791.06;5272202;27;20814;-72
2024/04/17 00:51:24;;;;;;;0.90;0.90;;;;;;;6.26;100.00;99797.09;5274596;27;20233;-72
2024/04/17 00:53:55;;;;;;;1.57;0.80;;;;;;;6.26;100.00;99800.47;5274185;27;20350;-72
2024/04/17 00:56:21;;;;;;;3.13;0.90;;;;;;;6.24;100.00;99794.00;5275496;27;20392;-72
2024/04/17 00:58:49;;;;;;;0.70;0.70;;;;;;;6.22;100.00;99799.56;5275045;27;20686;-72
2024/04/17 01:01:14;;;;;;;1.90;0.80;;;;;;;6.21;100.00;99802.50;5275242;27;20346;-72
2024/04/17 01:03:42;;;;;;;1.77;1.10;;;;;;;6.21;100.00;99802.50;5274736;27;20735;-72
2024/04/17 01:06:08;;;;;;;1.43;0.83;;;;;;;6.15;100.00;99807.16;5274753;27;20347;-72
2024/04/17 01:08:36;;;;;;;0.70;0.70;;;;;;;6.15;100.00;99817.63;5270432;27;20674;-72
2024/04/17 01:11:05;;;;;;;2.03;0.93;;;;;;;6.16;100.00;99819.16;5275606;27;20835;-73
2024/04/17 01:13:33;;;;;;;1.10;1.00;;;;;;;6.09;100.00;99812.88;5266890;27;20248;-73
2024/04/17 01:15:59;;;;;;;2.00;0.80;;;;;;;6.12;100.00;99820.13;5275158;27;20233;-73
2024/04/17 01:18:27;;;;;;;1.03;0.90;;;;;;;6.04;100.00;99821.69;5274976;27;20584;-72
2024/04/17 01:20:54;;;;;;;1.50;0.90;;;;;;;6.04;100.00;99820.91;5274992;27;20232;-72
2024/04/17 01:23:22;;;;;;;1.70;1.10;;;;;;;5.94;100.00;99821.22;5265379;27;20248;-72
2024/04/17 01:25:50;;;;;;;2.07;0.90;;;;;;;5.89;100.00;99830.03;5270155;27;20405;-72
2024/04/17 01:28:18;;;;;;;1.23;0.70;;;;;;;5.89;100.00;99829.25;5269771;27;20284;-72
2024/04/17 01:30:43;;;;;;;1.33;1.10;;;;;;;5.89;100.00;99829.25;5273779;27;20678;-72
2024/04/17 01:33:11;;;;;;;1.10;0.70;;;;;;;5.83;100.00;99826.06;5274036;27;20240;-72
2024/04/17 01:35:37;;;;;;;0.90;0.80;;;;;;;5.83;100.00;99833.13;5272725;27;20614;-72
2024/04/17 01:38:05;;;;;;;1.03;0.90;;;;;;;5.77;100.00;99829.88;5274410;27;20320;-73
2024/04/17 01:40:30;;;;;;;1.83;0.80;;;;;;;5.76;100.00;99841.44;5260913;27;20233;-72
2024/04/17 01:43:01;;;;;;;1.47;0.90;;;;;;;5.76;100.00;99843.28;5274568;27;20766;-73
2024/04/17 01:45:27;;;;;;;2.50;0.93;;;;;;;5.69;100.00;99838.53;5265667;27;20350;-72
2024/04/17 01:47:55;;;;;;;2.67;1.20;;;;;;;5.69;100.00;99850.88;5270890;27;20655;-72
2024/04/17 01:50:27;;;;;;;1.00;0.90;;;;;;;5.70;100.00;99855.03;5274554;27;20241;-72
2024/04/17 01:52:57;;;;;;;2.00;0.93;;;;;;;5.64;100.00;99849.16;5268260;27;20287;-73
2024/04/17 01:55:22;;;;;;;1.03;0.90;;;;;;;5.62;100.00;99845.31;5274533;27;20652;-72
2024/04/17 01:57:50;;;;;;;1.00;0.90;;;;;;;5.64;100.00;99846.53;5270015;27;20346;-73
2024/04/17 02:00:18;;;;;;;1.60;1.10;;;;;;;5.62;100.00;99846.09;5253270;27;20230;-72
2024/04/17 02:02:46;;;;;;;4.30;1.10;;;;;;;5.61;100.00;99847.19;5300871;27;20261;-73
2024/04/17 02:05:12;;;;;;;1.20;0.90;;;;;;;5.63;100.00;99852.09;5274229;27;20368;-72
2024/04/17 02:07:40;;;;;;;1.20;1.10;;;;;;;5.62;100.00;99850.53;5274144;27;20249;-72
2024/04/17 02:10:06;;;;;;;1.80;1.00;;;;;;;5.63;100.00;99854.69;5274176;27;20257;-72
2024/04/17 02:12:34;;;;;;;1.57;0.80;;;;;;;5.58;100.00;99850.41;5273594;27;20343;-72
2024/04/17 02:14:59;;;;;;;2.33;1.30;;;;;;;5.58;100.00;99858.25;5273851;27;20300;-72
2024/04/17 02:17:30;;;;;;;2.70;1.10;;;;;;;5.56;100.00;99857.81;5274200;27;20814;-73
2024/04/17 02:19:55;;;;;;;2.77;1.10;;;;;;;5.56;100.00;99860.44;5274132;27;20300;-72
2024/04/17 02:22:23;;;;;;;2.07;0.97;;;;;;;5.58;100.00;99860.88;5273918;27;20320;-72
2024/04/17 02:24:49;;;;;;;2.63;0.90;;;;;;;5.56;100.00;99870.13;5273660;27;20761;-72
2024/04/17 02:27:16;;;;;;;1.20;1.10;;;;;;;5.56;100.00;99859.66;5274175;27;20229;-73
2024/04/17 02:29:43;;;;;;;3.17;1.27;;;;;;;5.53;100.00;99863.66;5271539;27;20252;-72
2024/04/17 02:32:11;;;;;;;0.90;0.87;;;;;;;5.55;100.00;99874.56;5270078;27;20622;-72
2024/04/17 02:34:39;;;;;;;1.50;1.20;;;;;;;5.54;100.00;99874.91;5272459;27;20252;-73
2024/04/17 02:37:07;;;;;;;3.17;1.07;;;;;;;5.52;100.00;99858.72;5272824;27;20798;-72
2024/04/17 02:39:33;;;;;;;1.40;1.20;;;;;;;5.48;100.00;99866.41;5273943;27;22211;-72
2024/04/17 02:42:01;;;;;;;2.27;1.30;;;;;;;5.48;100.00;99869.03;5273697;27;20349;-72
2024/04/17 02:44:26;;;;;;;1.37;1.17;;;;;;;5.48;100.00;99866.41;5273991;27;20245;-72
2024/04/17 02:46:55;;;;;;;2.23;1.07;;;;;;;5.47;100.00;99869.34;5273587;27;20240;-72
2024/04/17 02:49:20;;;;;;;2.50;1.13;;;;;;;5.46;100.00;99867.81;5277093;27;20237;-72
2024/04/17 02:51:52;;;;;;;6.33;1.23;;;;;;;5.44;100.00;99869.97;5274519;27;20276;-72
2024/04/17 02:54:17;;;;;;;2.90;1.07;;;;;;;5.39;100.00;99864.91;5277915;27;20304;-72
2024/04/17 02:56:45;;;;;;;2.13;1.13;;;;;;;5.42;100.00;99869.50;5266730;27;20232;-72
2024/04/17 02:59:11;;;;;;;1.90;1.00;;;;;;;5.41;100.00;99876.59;5284615;27;20235;-72
2024/04/17 03:01:39;;;;;;;1.10;1.00;;;;;;;5.39;100.00;99870.13;5265830;27;20233;-72
2024/04/17 03:04:04;;;;;;;1.90;0.90;;;;;;;5.38;100.00;99876.44;5276718;27;20300;-72
2024/04/17 03:06:32;;;;;;;2.37;1.27;;;;;;;5.36;100.00;99870.72;5272776;27;20331;-72
2024/04/17 03:09:00;;;;;;;1.23;1.10;;;;;;;5.33;100.00;99887.06;5273313;27;20806;-72
2024/04/17 03:11:28;;;;;;;1.87;1.00;;;;;;;5.34;100.00;99886.75;5275089;27;20271;-72
2024/04/17 03:13:53;;;;;;;2.23;0.90;;;;;;;5.37;100.00;99890.59;5272802;27;20297;-72
2024/04/17 03:16:21;;;;;;;3.73;1.30;;;;;;;5.33;100.00;99893.06;5276716;27;20939;-72
2024/04/17 03:18:47;;;;;;;2.50;1.17;;;;;;;5.29;100.00;99892.13;5277153;27;20382;-72
2024/04/17 03:21:15;;;;;;;1.30;0.93;;;;;;;5.29;100.00;99901.84;5266638;27;20845;-72
2024/04/17 03:23:40;;;;;;;1.43;1.17;;;;;;;5.28;100.00;99900.31;5275588;27;20244;-72
2024/04/17 03:26:11;;;;;;;1.73;1.20;;;;;;;5.22;100.00;99902.28;5274484;27;20309;-72
2024/04/17 03:28:36;;;;;;;3.83;1.13;;;;;;;5.18;100.00;99896.13;5275409;27;20308;-72
2024/04/17 03:31:04;;;;;;;1.60;1.13;;;;;;;5.10;100.00;99899.50;5268173;27;20347;-71
2024/04/17 03:33:30;;;;;;;4.43;1.40;;;;;;;5.09;100.00;99899.81;5275045;27;20241;-72
2024/04/17 03:35:59;;;;;;;2.57;1.10;;;;;;;4.96;100.00;99909.31;5275485;27;20679;-72
2024/04/17 03:38:28;;;;;;;1.93;1.20;;;;;;;4.88;100.00;99915.28;5275854;27;20304;-72
2024/04/17 03:40:57;;;;;;;2.30;1.10;;;;;;;4.76;100.00;99909.88;5268552;27;20608;-72
2024/04/17 03:43:27;;;;;;;1.30;1.10;;;;;;;4.69;100.00;99917.41;5276209;27;20791;-72
2024/04/17 03:45:53;;;;;;;1.70;1.20;;;;;;;4.60;100.00;99918.41;5276143;27;20568;-72
2024/04/17 03:48:21;;;;;;;2.53;1.30;;;;;;;4.58;100.00;99920.56;5267781;27;20342;-71
2024/04/17 03:50:46;;;;;;;3.97;1.27;;;;;;;4.52;100.00;99929.63;5276120;27;20334;-72
2024/04/17 03:53:14;;;;;;;6.03;1.50;;;;;;;4.48;100.00;99929.44;5268226;27;20258;-72
2024/04/17 03:55:40;;;;;;;2.77;1.60;;;;;;;4.45;100.00;99937.88;5273286;27;20853;-72
2024/04/17 03:58:08;;;;;;;1.67;1.20;;;;;;;4.44;100.00;99940.78;5274360;27;20246;-72
2024/04/17 04:00:36;;;;;;;3.43;1.40;;;;;;;4.45;100.00;99942.34;5275520;27;20355;-72
2024/04/17 04:03:04;;;;;;;1.37;1.20;;;;;;;4.46;100.00;99949.88;5275139;27;20247;-72
2024/04/17 04:05:29;;;;;;;2.43;1.30;;;;;;;4.44;100.00;99952.03;5275382;27;20236;-72
2024/04/17 04:07:57;;;;;;;2.20;1.67;;;;;;;4.47;100.00;99953.28;5271345;27;20342;-72
2024/04/17 04:10:23;;;;;;;2.77;1.40;;;;;;;4.45;100.00;99960.66;5275195;27;20235;-72
2024/04/17 04:12:51;;;;;;;2.37;1.50;;;;;;;4.43;100.00;99958.34;5274994;27;20236;-71
2024/04/17 04:15:16;;;;;;;3.40;2.07;;;;;;;4.40;100.00;99961.53;5275323;27;20359;-72
2024/04/17 04:17:47;;;;;;;2.60;2.03;;;;;;;4.39;100.00;99961.81;5274403;27;20245;-71
2024/04/17 04:20:12;;;;;;;6.87;1.67;;;;;;;4.36;100.00;99959.81;5275021;27;20338;-72
2024/04/17 04:22:40;;;;;;;3.27;1.90;;;;;;;4.27;100.00;99961.59;5274263;27;20257;-71
2024/04/17 04:25:06;;;;;;;4.43;2.03;;;;;;;4.22;100.00;99975.59;5274682;27;20582;-72
2024/04/17 04:27:34;;;;;;;3.37;1.87;;;;;;;4.17;100.00;99978.31;5274882;27;20300;-71
2024/04/17 04:30:00;;;;;;;2.67;1.90;;;;;;;4.15;100.00;99972.59;5274801;27;20288;-72
2024/04/17 04:32:27;;;;;;;2.80;1.90;;;;;;;4.08;100.00;99984.53;5287630;27;20248;-71
2024/04/17 04:34:55;;;;;;;2.23;1.60;;;;;;;4.00;100.00;99986.00;5280014;26;20249;-71
2024/04/17 04:37:25;;;;;;;3.23;2.00;;;;;;;3.97;100.00;99993.66;5274591;27;20237;-72
2024/04/17 04:39:51;;;;;;;3.87;2.30;;;;;;;3.91;100.00;99992.25;5274359;27;20232;-72
2024/04/17 04:42:19;;;;;;;4.30;1.93;;;;;;;3.91;100.00;99998.25;5274485;27;20263;-71
2024/04/17 04:44:45;;;;;;;4.10;2.17;;;;;;;3.84;100.00;99994.50;5274337;27;20241;-71
2024/04/17 04:47:14;;;;;;;5.27;1.87;;;;;;;3.82;100.00;100000.00;5272314;27;20333;-72
2024/04/17 04:49:40;;;;;;;4.70;2.10;;;;;;;3.79;100.00;100002.44;5266709;27;20237;-71
2024/04/17 04:52:10;;;;;;;5.93;2.00;;;;;;;3.73;100.00;100004.38;5274765;27;20232;-71
2024/04/17 04:54:35;;;;;;;3.17;1.80;;;;;;;3.74;100.00;100015.59;5274035;27;20244;-72
2024/04/17 04:57:03;;;;;;;5.10;2.10;;;;;;;3.72;100.00;100013.28;5260417;27;20245;-71
2024/04/17 04:59:29;;;;;;;3.83;1.93;;;;;;;3.74;100.00;100018.22;5250254;27;20814;-71
2024/04/17 05:01:58;;;;;;;2.40;2.20;;;;;;;3.69;100.00;100023.53;5273604;27;20312;-72
2024/04/17 05:04:23;;;;;;;2.93;2.20;;;;;;;3.66;100.00;100018.91;5261337;27;20698;-71
2024/04/17 05:06:51;;;;;;;5.30;2.50;;;;;;;3.67;100.00;100020.44;5274467;27;20236;-71
2024/04/17 05:09:19;;;;;;;4.27;2.50;;;;;;;3.66;100.00;100030.13;5281479;27;20233;-72
2024/04/17 05:11:47;;;;;;;2.37;1.67;;;;;;;3.69;100.00;100029.53;5272355;27;20623;-71
2024/04/17 05:14:13;;;;;;;4.73;2.30;;;;;;;3.67;100.00;100033.47;5274358;27;20291;-72
2024/04/17 05:16:41;;;;;;;4.07;2.60;;;;;;;3.66;100.00;100040.56;5273980;27;20775;-71
2024/04/17 05:19:06;;;;;;;5.97;2.60;;;;;;;3.68;100.00;100035.81;5258024;27;20308;-71
2024/04/17 05:21:34;;;;;;;3.17;2.20;;;;;;;3.69;100.00;100044.44;5272343;27;20350;-72
2024/04/17 05:24:00;;;;;;;3.67;2.17;;;;;;;3.69;100.00;100041.81;5274022;27;20342;-72
2024/04/17 05:26:30;;;;;;;3.20;2.00;;;;;;;3.71;100.00;100043.06;5274373;27;20663;-72
2024/04/17 05:28:56;;;;;;;4.90;2.30;;;;;;;3.70;100.00;100054.59;5274817;27;20312;-71
2024/04/17 05:31:24;;;;;;;3.73;2.30;;;;;;;3.72;100.00;100049.84;5274458;27;20343;-72
2024/04/17 05:33:49;;;;;;;3.50;2.23;;;;;;;3.73;100.00;100056.59;5273930;27;20275;-72
2024/04/17 05:36:17;;;;;;;3.63;2.03;;;;;;;3.71;100.00;100052.72;5274198;27;20724;-71
2024/04/17 05:38:43;;;;;;;3.57;2.23;;;;;;;3.78;100.00;100060.97;5274894;27;20279;-71
2024/04/17 05:41:11;;;;;;;3.77;2.10;;;;;;;3.82;100.00;100067.91;5266871;27;20245;-72
2024/04/17 05:43:39;;;;;;;2.90;2.10;;;;;;;3.85;100.00;100063.94;5274044;27;20287;-72
2024/04/17 05:46:07;;;;;;;3.87;2.30;;;;;;;3.92;100.00;100059.84;5254905;27;20245;-72
2024/04/17 05:48:32;;;;;;;3.63;2.30;;;;;;;3.97;100.00;100061.56;5249579;27;20232;-72
2024/04/17 05:51:00;;;;;;;7.83;2.60;;;;;;;4.03;100.00;100058.56;5274241;27;20232;-72
2024/04/17 05:53:26;;;;;;;4.30;2.00;;;;;;;4.13;100.00;100058.34;5252387;27;20833;-72
2024/04/17 05:55:54;;;;;;;3.07;2.10;;;;;;;4.22;100.00;100067.03;5273835;27;20236;-72
2024/04/17 05:58:19;;;;;;;2.57;1.90;;;;;;;4.29;100.00;100061.38;5273738;27;20382;-72
2024/04/17 06:00:50;;;;;;;4.00;2.20;;;;;;;4.41;100.00;100072.84;5275555;27;20656;-72
2024/04/17 06:03:15;;;;;;;3.47;1.87;;;;;;;4.48;100.00;100069.81;5268847;27;20300;-72
2024/04/17 06:05:43;;;;;;;2.30;1.80;;;;;;;4.54;100.00;100071.25;5273148;27;20679;-72
2024/04/17 06:08:09;;;;;;;3.93;2.00;;;;;;;4.61;100.00;100074.25;5271896;27;20666;-72
2024/04/17 06:10:37;;;;;;;3.17;1.80;;;;;;;4.65;100.00;100067.31;5273659;27;20233;-72
2024/04/17 06:13:02;;;;;;;2.23;1.60;;;;;;;4.70;100.00;100073.22;5273045;27;20275;-72
2024/04/17 06:15:30;;;;;;;3.23;1.90;;;;;;;4.73;100.00;100077.06;5273291;27;20249;-72
2024/04/17 06:17:58;;;;;;;4.70;1.60;;;;;;;4.75;100.00;100082.78;5257489;27;20245;-72
2024/04/17 06:20:27;;;;;;;2.13;1.73;;;;;;;4.77;100.00;100084.00;5273098;27;20695;-72
2024/04/17 06:22:52;;;;;;;4.83;1.83;;;;;;;4.80;100.00;100080.03;5275377;27;20237;-72
2024/04/17 06:25:21;;;;;;;3.10;1.77;;;;;;;4.84;100.00;100084.38;5275016;27;20248;-72
2024/04/17 06:27:47;;;;;;;2.60;1.93;;;;;;;4.84;100.00;100089.63;5275921;27;20780;-72
2024/04/17 06:30:15;;;;;;;2.73;1.73;;;;;;;4.87;100.00;100088.25;5276518;27;20244;-72
2024/04/17 06:32:41;;;;;;;4.60;1.90;;;;;;;4.90;100.00;100091.03;5269125;27;20244;-72
2024/04/17 06:35:11;;;;;;;2.23;1.63;;;;;;;4.98;100.00;100092.91;5259059;27;20302;-72
2024/04/17 06:37:39;;;;;;;6.03;2.33;;;;;;;5.00;100.00;100090.00;5266755;27;20290;-72
2024/04/17 06:40:06;;;;;;;3.83;1.77;;;;;;;5.07;100.00;100091.13;5261285;27;20257;-71
2024/04/17 06:42:34;;;;;;;3.67;2.20;;;;;;;5.15;100.00;100087.78;5275700;27;20253;-72
2024/04/17 06:45:01;;;;;;;2.90;1.93;;;;;;;5.27;100.00;100087.97;5272379;27;20347;-72
2024/04/17 06:47:29;;;;;;;3.73;2.60;;;;;;;5.37;100.00;100095.56;5271816;27;20338;-72
2024/04/17 06:49:55;;;;;;;3.97;2.53;;;;;;;5.48;100.00;100098.66;5275384;27;20242;-72
2024/04/17 06:52:27;;;;;;;4.70;2.50;;;;;;;5.59;100.00;100092.09;5275592;27;20224;-72
2024/04/17 06:54:52;;;;;;;3.87;2.60;;;;;;;5.75;100.00;100088.00;5275642;27;20229;-72
2024/04/17 06:57:20;;;;;;;4.73;3.03;;;;;;;5.90;100.00;100092.81;5275543;27;20245;-72
2024/04/17 06:59:45;;;;;;;4.80;2.37;;;;;;;6.03;100.00;100099.78;5270711;27;20729;-72
2024/04/17 07:02:13;;;;;;;3.10;2.03;;;;;;;6.12;100.00;100103.19;5269644;27;20351;-72
2024/04/17 07:04:39;;;;;;;2.80;2.10;;;;;;;6.25;100.00;100105.66;5261003;27;20244;-72
2024/04/17 07:07:07;;;;;;;3.03;1.97;;;;;;;6.38;100.00;100106.59;5275664;27;20323;-72
2024/04/17 07:09:35;;;;;;;3.13;2.10;;;;;;;6.57;100.00;100099.94;5275553;27;20713;-72
2024/04/17 07:12:03;;;;;;;5.83;2.07;;;;;;;6.79;100.00;100112.13;5272825;27;20271;-72
2024/04/17 07:14:28;;;;;;;3.60;1.90;;;;;;;6.96;100.00;100112.09;5272952;27;20245;-72
2024/04/17 07:16:57;;;;;;;2.13;1.60;;;;;;;7.10;100.00;100108.19;5274153;27;20237;-72
2024/04/17 07:19:24;;;;;;;4.00;1.40;;;;;;;7.23;100.00;100107.22;5268786;27;20280;-72
2024/04/17 07:21:52;;;;;;;2.63;1.87;;;;;;;7.33;100.00;100100.84;5263739;27;20283;-72
2024/04/17 07:24:18;;;;;;;5.63;1.60;;;;;;;7.45;100.00;100104.34;5273309;27;20271;-72
2024/04/17 07:26:48;;;;;;;2.50;1.90;;;;;;;7.58;100.00;100110.47;5271171;27;20248;-72
2024/04/17 07:29:16;;;;;;;1.50;1.30;;;;;;;7.68;100.00;100115.38;5274169;27;20345;-72
2024/04/17 07:31:43;;;;;;;1.60;1.50;;;;;;;7.76;100.00;100117.94;5267828;27;20244;-72
2024/04/17 07:34:11;;;;;;;2.27;1.63;;;;;;;7.80;100.00;100112.84;5272701;27;20309;-72
2024/04/17 07:36:36;;;;;;;2.80;1.90;;;;;;;7.87;100.00;100118.38;5273698;27;20307;-72
2024/04/17 07:39:04;;;;;;;3.03;1.60;;;;;;;7.94;100.00;100113.38;5273407;27;20302;-72
2024/04/17 07:41:30;;;;;;;1.57;1.40;;;;;;;8.04;100.00;100107.75;5273744;27;20762;-72
2024/04/17 07:44:00;;;;;;;3.70;2.10;;;;;;;8.15;100.00;100119.44;5271954;27;20262;-73
2024/04/17 07:46:26;;;;;;;3.93;1.93;;;;;;;8.24;100.00;100118.28;5273410;27;20246;-72
2024/04/17 07:48:54;;;;;;;2.40;1.80;;;;;;;8.29;100.00;100123.38;5269577;27;20298;-73
2024/04/17 07:51:20;;;;;;;3.50;2.30;;;;;;;8.23;100.00;100119.38;5300645;27;20310;-72
2024/04/17 07:53:48;;;;;;;3.10;2.07;;;;;;;8.25;100.00;100127.75;5266502;27;20345;-72
2024/04/17 07:56:13;;;;;;;2.47;2.17;;;;;;;8.22;100.00;100125.75;5265672;27;20690;-72
2024/04/17 07:58:41;;;;;;;4.63;2.10;;;;;;;8.22;100.00;100124.97;5272867;27;20239;-72
2024/04/17 08:01:10;;;;;;;2.33;1.90;;;;;;;8.24;100.00;100120.94;5276307;27;20251;-72
2024/04/17 08:03:38;;;;;;;2.37;2.00;;;;;;;8.26;100.00;100124.03;5282916;27;20246;-72
2024/04/17 08:06:04;;;;;;;2.07;1.70;;;;;;;8.31;100.00;100123.06;5274710;27;20354;-72
2024/04/17 08:08:32;;;;;;;2.10;1.90;;;;;;;8.35;100.00;100116.06;5275304;27;20650;-72
2024/04/17 08:10:57;;;;;;;2.00;1.80;;;;;;;8.41;100.00;100130.56;5273147;27;20290;-72
2024/04/17 08:13:26;;;;;;;2.27;1.90;;;;;;;8.45;100.00;100119.06;5272653;27;21051;-72
2024/04/17 08:15:53;;;;;;;3.00;2.00;;;;;;;8.55;100.00;100128.44;5272768;27;20288;-72
2024/04/17 08:18:23;;;;;;;3.83;1.77;;;;;;;8.60;100.00;100123.72;5272163;27;20275;-73
2024/04/17 08:20:54;;;;;;;2.97;1.90;;;;;;;8.63;100.00;100125.72;5272889;27;20350;-72
2024/04/17 08:23:22;;;;;;;1.97;1.77;;;;;;;8.71;100.00;100129.38;5272274;27;20244;-72
2024/04/17 08:25:47;;;;;;;2.47;2.27;;;;;;;8.74;100.00;100123.47;5270508;27;20701;-72
2024/04/17 08:28:16;;;;;;;3.73;1.80;;;;;;;8.80;100.00;100122.94;5271436;27;20260;-72
2024/04/17 08:30:41;;;;;;;4.70;1.40;;;;;;;8.88;100.00;100126.59;5271221;27;20300;-72
2024/04/17 08:33:09;;;;;;;1.63;1.43;;;;;;;8.98;100.00;100134.88;5272679;27;20229;-73
2024/04/17 08:35:38;;;;;;;2.40;1.67;;;;;;;9.06;100.00;100125.34;5268838;27;20275;-72
2024/04/17 08:38:07;;;;;;;1.60;1.43;;;;;;;9.19;100.00;100132.94;5272958;27;20241;-73
2024/04/17 08:40:32;;;;;;;1.80;1.53;;;;;;;9.31;100.00;100129.56;5272702;27;20794;-73
2024/04/17 08:43:05;;;;;;;2.27;1.50;;;;;;;9.43;100.00;100126.94;5272180;27;20245;-72
2024/04/17 08:45:32;;;;;;;3.80;2.50;;;;;;;9.56;100.00;100129.25;5273008;27;20288;-73
2024/04/17 08:48:01;;;;;;;11.83;8.33;;;;;;;9.66;100.00;100126.19;5269483;27;20630;-74
2024/04/17 08:50:30;;;;;;;3.60;3.10;;;;;;;9.80;100.00;100136.38;5267603;27;20746;-74
2024/04/17 08:53:02;;;;;;;3.23;1.47;;;;;;;9.91;100.00;100129.56;5271833;27;20281;-73
2024/04/17 08:55:28;;;;;;;1.47;1.37;;;;;;;10.02;100.00;100135.91;5268171;27;20280;-72
2024/04/17 08:57:57;;;;;;;1.90;1.67;;;;;;;10.10;100.00;100137.72;5271450;27;20296;-72
2024/04/17 09:00:23;;;;;;;1.60;1.50;;;;;;;10.13;100.00;100126.47;5270447;27;20233;-73
2024/04/17 09:02:53;;;;;;;1.60;1.50;;;;;;;10.12;100.00;100138.91;5263850;27;20244;-73
2024/04/17 09:05:20;;;;;;;3.20;1.30;;;;;;;10.15;100.00;100135.59;5269182;27;20245;-72
2024/04/17 09:07:51;;;;;;;3.27;1.27;;;;;;;10.16;98.67;100139.00;5269446;27;20291;-72
2024/04/17 09:10:20;;;;;;;1.70;1.60;;;;;;;10.18;100.00;100142.88;5271838;27;20315;-73
2024/04/17 09:12:48;;;;;;;1.97;1.37;;;;;;;10.19;99.00;100135.72;5271543;27;20299;-73
2024/04/17 09:15:15;;;;;;;2.23;1.33;;;;;;;10.23;100.00;100133.94;5270998;27;20738;-73
2024/04/17 09:17:44;;;;;;;2.33;1.17;;;;;;;10.15;96.09;100134.84;5270933;27;20351;-72
2024/04/17 09:20:09;;;;;;;1.57;1.13;;;;;;;10.14;93.63;100136.72;5271576;27;20273;-72
2024/04/17 09:22:38;;;;;;;2.10;1.50;;;;;;;10.19;99.95;100133.09;5270158;27;20897;-72
2024/04/17 09:25:11;;;;;;;8.87;4.53;;;;;;;10.24;90.60;100132.84;5269613;27;20323;-72
2024/04/17 09:27:42;;;;;;;47.83;26.17;;;;;;;10.33;98.50;100133.47;5270072;27;20360;-73
2024/04/17 09:30:07;;;;;;;9.10;6.43;;;;;;;10.38;93.21;100136.66;5268648;27;20730;-72
2024/04/17 09:32:35;;;;;;;4.10;1.00;;;;;;;10.38;90.32;100134.03;5271666;27;20298;-72
2024/04/17 09:35:01;;;;;;;11.97;8.27;;;;;;;10.45;90.24;100134.22;5268905;27;20255;-72
2024/04/17 09:37:29;;;;;;;1.80;1.60;;;;;;;10.50;92.02;100143.78;5270395;27;20238;-72
2024/04/17 09:40:02;;;;;;;1.90;1.17;;;;;;;10.53;93.14;100129.91;5264441;27;20240;-72
2024/04/17 09:42:32;;;;;;;5.03;2.73;;;;;;;10.65;100.00;100137.78;5271571;27;20251;-72
2024/04/17 09:45:01;;;;;;;4.07;2.93;;;;;;;10.80;85.35;100134.41;5276807;27;20255;-72
2024/04/17 09:47:30;;;;;;;2.80;1.30;;;;;;;10.91;86.40;100128.31;5271113;27;20247;-72
2024/04/17 09:49:59;;;;;;;2.03;1.20;;;;;;;11.05;100.00;100135.84;5266490;27;20247;-72
2024/04/17 09:52:29;;;;;;;1.93;1.00;;;;;;;11.04;77.50;100131.66;5271198;27;20252;-72
2024/04/17 09:54:56;;;;;;;1.43;1.00;;;;;;;11.06;84.64;100140.00;5268904;27;20233;-72
2024/04/17 09:57:25;;;;;;;2.47;2.10;;;;;;;11.02;83.34;100128.59;5269863;27;20288;-73
2024/04/17 09:59:53;;;;;;;1.97;1.10;;;;;;;11.07;80.45;100129.09;5268425;27;20253;-73
2024/04/17 10:02:26;;;;;;;2.70;1.60;;;;;;;11.13;89.46;100132.28;5270374;27;20237;-73
2024/04/17 10:04:53;;;;;;;2.93;2.27;;;;;;;11.14;78.79;100129.28;5270506;27;20392;-72
2024/04/17 10:07:24;;;;;;;1.83;1.60;;;;;;;11.22;89.56;100138.16;5270507;27;20331;-73
2024/04/17 10:09:51;;;;;;;1.73;1.10;;;;;;;11.25;72.67;100132.19;5263638;27;20237;-74
2024/04/17 10:12:20;;;;;;;3.83;1.10;;;;;;;11.35;75.70;100136.97;5265286;27;20240;-73
2024/04/17 10:14:47;;;;;;;2.00;1.00;;;;;;;11.43;72.88;100128.88;5267749;27;20308;-72
2024/04/17 10:17:16;;;;;;;0.83;0.83;;;;;;;11.50;72.81;100128.28;5266925;27;20321;-73
2024/04/17 10:19:51;;;;;;;2.10;0.90;;;;;;;11.54;68.60;100126.50;5264254;27;20326;-73
2024/04/17 10:22:19;;;;;;;1.50;0.70;;;;;;;11.65;65.35;100122.25;5266273;27;20244;-73
2024/04/17 10:24:45;;;;;;;0.97;0.63;;;;;;;11.77;66.43;100120.28;5267077;27;20776;-72
2024/04/17 10:27:18;;;;;;;2.10;0.93;;;;;;;11.87;61.91;100122.41;5268932;27;20355;-73
2024/04/17 10:29:43;;;;;;;0.80;0.77;;;;;;;11.94;60.78;100121.75;5268395;27;20353;-73
2024/04/17 10:32:14;;;;;;;1.50;1.00;;;;;;;12.16;71.23;100121.88;5269048;27;20712;-72
2024/04/17 10:34:44;;;;;;;1.20;1.10;;;;;;;12.32;71.31;100119.94;5263652;27;20344;-72
2024/04/17 10:37:16;;;;;;;2.00;0.90;;;;;;;12.34;77.33;100123.03;5268854;27;20289;-72
2024/04/17 10:39:42;;;;;;;0.83;0.70;;;;;;;12.31;60.25;100131.66;5269123;27;20805;-72
2024/04/17 10:42:11;;;;;;;5.23;2.80;;;;;;;12.32;60.33;100119.94;5263050;27;20275;-73
2024/04/17 10:44:44;;;;;;;3.13;1.00;;;;;;;12.43;64.68;100120.16;5270537;27;20245;-73
2024/04/17 10:47:22;;;;;;;0.80;0.80;;;;;;;12.51;59.05;100116.53;5266665;27;20353;-72
2024/04/17 10:49:54;;;;;;;2.40;0.63;;;;;;;12.57;59.41;100118.56;5264863;27;20724;-73
2024/04/17 10:52:25;;;;;;;1.33;0.70;;;;;;;12.52;59.55;100118.84;5268047;27;20312;-73
2024/04/17 10:54:52;;;;;;;1.33;0.67;;;;;;;12.48;62.19;100114.59;5263956;27;20237;-74
2024/04/17 10:57:20;;;;;;;1.37;0.60;;;;;;;12.38;63.85;100110.59;5263479;27;20628;-72
2024/04/17 10:59:46;;;;;;;0.70;0.70;;;;;;;12.27;71.85;100114.16;5265422;27;20307;-72
2024/04/17 11:02:14;;;;;;;1.60;1.20;;;;;;;12.32;60.80;100116.53;5267553;27;20275;-73
2024/04/17 11:04:40;;;;;;;0.80;0.70;;;;;;;12.29;60.74;100114.59;5265327;27;20349;-72
2024/04/17 11:07:09;;;;;;;1.03;0.67;;;;;;;12.30;61.72;100116.09;5267262;27;20254;-73
2024/04/17 11:09:41;;;;;;;0.90;0.80;;;;;;;12.42;63.74;100111.44;5269481;27;20344;-73
2024/04/17 11:12:15;;;;;;;0.93;0.50;;;;;;;12.61;64.34;100100.84;5276329;27;20257;-72
2024/04/17 11:14:40;;;;;;;0.73;0.50;;;;;;;12.73;61.60;100103.34;5270873;27;20248;-73
2024/04/17 11:17:08;;;;;;;1.93;0.60;;;;;;;12.87;63.30;100105.47;5269195;27;20291;-73
2024/04/17 11:19:34;;;;;;;4.60;0.77;;;;;;;13.09;69.05;100096.84;5272331;27;20819;-72
2024/04/17 11:22:08;;;;;;;1.43;0.43;;;;;;;13.18;63.83;100098.13;5270454;27;20247;-72
2024/04/17 11:24:37;;;;;;;1.23;0.60;;;;;;;13.21;58.86;100102.75;5269235;27;20356;-73
2024/04/17 11:27:09;;;;;;;0.80;0.67;;;;;;;13.15;57.99;100100.72;5266968;27;20231;-73
2024/04/17 11:29:35;;;;;;;1.07;0.60;;;;;;;12.92;63.32;100110.50;5272391;27;21387;-72
2024/04/17 11:32:03;;;;;;;1.63;0.70;;;;;;;12.72;58.51;100103.69;5267274;27;20274;-73